sensor_id;sensor_type;location;lat;lon;timestamp;temperature;humidity
54260;DHT22;40172;53.022;7.012;2023-08-24T00:00:16;14.40;99.90
54260;DHT22;40172;53.022;7.012;2023-08-24T00:02:42;14.40;99.90
54260;DHT22;40172;53.022;7.012;2023-08-24T00:05:07;14.40;99.90
54260;DHT22;40172;53.022;7.012;2023-08-24T00:07:33;14.30;99.90
54260;DHT22;40172;53.022;7.012;2023-08-24T00:09:59;14.20;99.90
54260;DHT22;40172;53.022;7.012;2023-08-24T00:12:24;14.20;99.90
54260;DHT22;40172;53.022;7.012;2023-08-24T00:14:51;14.10;99.90
54260;DHT22;40172;53.022;7.012;2023-08-24T00:17:17;14.10;99.90
54260;DHT22;40172;53.022;7.012;2023-08-24T00:19:43;14.00;99.90
54260;DHT22;40172;53.022;7.012;2023-08-24T00:22:08;14.00;99.90
54260;DHT22;40172;53.022;7.012;2023-08-24T00:24:34;14.00;99.90
54260;DHT22;40172;53.022;7.012;2023-08-24T00:27:00;13.90;99.90
54260;DHT22;40172;53.022;7.012;2023-08-24T00:29:25;13.90;99.90
54260;DHT22;40172;53.022;7.012;2023-08-24T00:31:51;13.90;99.90
54260;DHT22;40172;53.022;7.012;2023-08-24T00:34:16;13.90;99.90
54260;DHT22;40172;53.022;7.012;2023-08-24T00:36:42;13.90;99.90
54260;DHT22;40172;53.022;7.012;2023-08-24T00:39:07;13.90;99.90
54260;DHT22;40172;53.022;7.012;2023-08-24T00:41:33;13.90;99.90
54260;DHT22;40172;53.022;7.012;2023-08-24T00:43:59;14.00;99.90
54260;DHT22;40172;53.022;7.012;2023-08-24T00:46:26;13.90;99.90
54260;DHT22;40172;53.022;7.012;2023-08-24T00:48:54;13.90;99.90
54260;DHT22;40172;53.022;7.012;2023-08-24T00:51:23;13.90;99.90
54260;DHT22;40172;53.022;7.012;2023-08-24T00:53:49;13.80;99.90
54260;DHT22;40172;53.022;7.012;2023-08-24T00:56:15;13.80;99.90
54260;DHT22;40172;53.022;7.012;2023-08-24T00:58:41;13.80;99.90
54260;DHT22;40172;53.022;7.012;2023-08-24T01:01:07;13.90;99.90
54260;DHT22;40172;53.022;7.012;2023-08-24T01:03:32;13.90;99.90
54260;DHT22;40172;53.022;7.012;2023-08-24T01:05:58;13.90;99.90
54260;DHT22;40172;53.022;7.012;2023-08-24T01:08:24;13.90;99.90
54260;DHT22;40172;53.022;7.012;2023-08-24T01:13:25;13.80;99.90
54260;DHT22;40172;53.022;7.012;2023-08-24T01:16:14;13.70;99.90
54260;DHT22;40172;53.022;7.012;2023-08-24T01:18:41;13.70;99.90
54260;DHT22;40172;53.022;7.012;2023-08-24T01:21:08;13.60;99.90
54260;DHT22;40172;53.022;7.012;2023-08-24T01:23:43;13.60;99.90
54260;DHT22;40172;53.022;7.012;2023-08-24T01:26:11;13.60;99.90
54260;DHT22;40172;53.022;7.012;2023-08-24T01:28:37;13.60;99.90
54260;DHT22;40172;53.022;7.012;2023-08-24T01:31:04;13.60;99.90
54260;DHT22;40172;53.022;7.012;2023-08-24T01:33:31;13.60;99.90
54260;DHT22;40172;53.022;7.012;2023-08-24T01:35:56;13.60;99.90
54260;DHT22;40172;53.022;7.012;2023-08-24T01:38:22;13.60;99.90
54260;DHT22;40172;53.022;7.012;2023-08-24T01:43:21;13.80;99.90
54260;DHT22;40172;53.022;7.012;2023-08-24T01:45:52;13.80;99.90
54260;DHT22;40172;53.022;7.012;2023-08-24T01:48:19;13.90;99.90
54260;DHT22;40172;53.022;7.012;2023-08-24T01:50:45;13.90;99.90
54260;DHT22;40172;53.022;7.012;2023-08-24T01:53:12;14.00;99.90
54260;DHT22;40172;53.022;7.012;2023-08-24T01:55:38;14.00;99.90
54260;DHT22;40172;53.022;7.012;2023-08-24T01:58:03;14.10;99.90
54260;DHT22;40172;53.022;7.012;2023-08-24T02:00:29;14.20;99.90
54260;DHT22;40172;53.022;7.012;2023-08-24T02:02:55;14.20;99.90
54260;DHT22;40172;53.022;7.012;2023-08-24T02:05:20;14.20;99.90
54260;DHT22;40172;53.022;7.012;2023-08-24T02:07:46;14.30;99.90
54260;DHT22;40172;53.022;7.012;2023-08-24T02:10:11;14.30;99.90
54260;DHT22;40172;53.022;7.012;2023-08-24T02:12:37;14.40;99.90
54260;DHT22;40172;53.022;7.012;2023-08-24T02:15:03;14.50;99.90
54260;DHT22;40172;53.022;7.012;2023-08-24T02:17:28;14.50;99.90
54260;DHT22;40172;53.022;7.012;2023-08-24T02:19:55;14.50;99.90
54260;DHT22;40172;53.022;7.012;2023-08-24T02:22:20;14.50;99.90
54260;DHT22;40172;53.022;7.012;2023-08-24T02:24:46;14.50;99.90
54260;DHT22;40172;53.022;7.012;2023-08-24T02:27:12;14.50;99.90
54260;DHT22;40172;53.022;7.012;2023-08-24T02:29:37;14.50;99.90
54260;DHT22;40172;53.022;7.012;2023-08-24T02:32:04;14.50;99.90
54260;DHT22;40172;53.022;7.012;2023-08-24T02:34:30;14.50;99.90
54260;DHT22;40172;53.022;7.012;2023-08-24T02:36:56;14.50;99.90
54260;DHT22;40172;53.022;7.012;2023-08-24T02:39:22;14.60;99.90
54260;DHT22;40172;53.022;7.012;2023-08-24T02:41:48;14.60;99.90
54260;DHT22;40172;53.022;7.012;2023-08-24T02:44:14;14.50;99.90
54260;DHT22;40172;53.022;7.012;2023-08-24T02:46:40;14.50;99.90
54260;DHT22;40172;53.022;7.012;2023-08-24T02:49:05;14.50;99.90
54260;DHT22;40172;53.022;7.012;2023-08-24T02:51:31;14.50;99.90
54260;DHT22;40172;53.022;7.012;2023-08-24T02:53:57;14.40;99.90
54260;DHT22;40172;53.022;7.012;2023-08-24T02:56:23;14.40;99.90
54260;DHT22;40172;53.022;7.012;2023-08-24T02:58:48;14.30;99.90
54260;DHT22;40172;53.022;7.012;2023-08-24T03:01:14;14.30;99.90
54260;DHT22;40172;53.022;7.012;2023-08-24T03:03:39;14.30;99.90
54260;DHT22;40172;53.022;7.012;2023-08-24T03:06:07;14.30;99.90
54260;DHT22;40172;53.022;7.012;2023-08-24T03:08:34;14.30;99.90
54260;DHT22;40172;53.022;7.012;2023-08-24T03:11:00;14.20;99.90
54260;DHT22;40172;53.022;7.012;2023-08-24T03:13:27;14.20;99.90
54260;DHT22;40172;53.022;7.012;2023-08-24T03:15:53;14.20;99.90
54260;DHT22;40172;53.022;7.012;2023-08-24T03:18:19;14.20;99.90
54260;DHT22;40172;53.022;7.012;2023-08-24T03:20:46;14.20;99.90
54260;DHT22;40172;53.022;7.012;2023-08-24T03:23:12;14.20;99.90
54260;DHT22;40172;53.022;7.012;2023-08-24T03:25:39;14.20;99.90
54260;DHT22;40172;53.022;7.012;2023-08-24T03:28:06;14.20;99.90
54260;DHT22;40172;53.022;7.012;2023-08-24T03:30:34;14.30;99.90
54260;DHT22;40172;53.022;7.012;2023-08-24T03:33:00;14.30;99.90
54260;DHT22;40172;53.022;7.012;2023-08-24T03:35:26;14.30;99.90
54260;DHT22;40172;53.022;7.012;2023-08-24T03:37:52;14.30;99.90
54260;DHT22;40172;53.022;7.012;2023-08-24T03:40:17;14.30;99.90
54260;DHT22;40172;53.022;7.012;2023-08-24T03:42:43;14.30;99.90
54260;DHT22;40172;53.022;7.012;2023-08-24T03:45:09;14.30;99.90
54260;DHT22;40172;53.022;7.012;2023-08-24T03:47:34;14.30;99.90
54260;DHT22;40172;53.022;7.012;2023-08-24T03:50:00;14.30;99.90
54260;DHT22;40172;53.022;7.012;2023-08-24T03:52:26;14.30;99.90
54260;DHT22;40172;53.022;7.012;2023-08-24T03:54:52;14.30;99.90
54260;DHT22;40172;53.022;7.012;2023-08-24T03:57:17;14.20;99.90
54260;DHT22;40172;53.022;7.012;2023-08-24T03:59:43;14.30;99.90
54260;DHT22;40172;53.022;7.012;2023-08-24T04:02:08;14.20;99.90
54260;DHT22;40172;53.022;7.012;2023-08-24T04:04:34;14.20;99.90
54260;DHT22;40172;53.022;7.012;2023-08-24T04:07:00;14.20;99.90
54260;DHT22;40172;53.022;7.012;2023-08-24T04:09:27;14.20;99.90
54260;DHT22;40172;53.022;7.012;2023-08-24T04:11:53;14.20;99.90
54260;DHT22;40172;53.022;7.012;2023-08-24T04:14:18;14.20;99.90
54260;DHT22;40172;53.022;7.012;2023-08-24T04:16:44;14.10;99.90
54260;DHT22;40172;53.022;7.012;2023-08-24T04:19:09;14.10;99.90
54260;DHT22;40172;53.022;7.012;2023-08-24T04:21:35;14.10;99.90
54260;DHT22;40172;53.022;7.012;2023-08-24T04:24:00;14.10;99.90
54260;DHT22;40172;53.022;7.012;2023-08-24T04:26:26;14.00;99.90
54260;DHT22;40172;53.022;7.012;2023-08-24T04:28:53;14.00;99.90
54260;DHT22;40172;53.022;7.012;2023-08-24T04:31:19;14.00;99.90
54260;DHT22;40172;53.022;7.012;2023-08-24T04:33:44;14.10;99.90
54260;DHT22;40172;53.022;7.012;2023-08-24T04:36:10;14.10;99.90
54260;DHT22;40172;53.022;7.012;2023-08-24T04:38:35;14.10;99.90
54260;DHT22;40172;53.022;7.012;2023-08-24T04:41:02;14.10;99.90
54260;DHT22;40172;53.022;7.012;2023-08-24T04:43:32;14.10;99.90
54260;DHT22;40172;53.022;7.012;2023-08-24T04:45:58;14.10;99.90
54260;DHT22;40172;53.022;7.012;2023-08-24T04:48:25;14.20;99.90
54260;DHT22;40172;53.022;7.012;2023-08-24T04:50:51;14.20;99.90
54260;DHT22;40172;53.022;7.012;2023-08-24T04:53:19;14.20;99.90
54260;DHT22;40172;53.022;7.012;2023-08-24T04:55:46;14.20;99.90
54260;DHT22;40172;53.022;7.012;2023-08-24T04:58:12;14.20;99.90
54260;DHT22;40172;53.022;7.012;2023-08-24T05:00:39;14.20;99.90
54260;DHT22;40172;53.022;7.012;2023-08-24T05:03:05;14.20;99.90
54260;DHT22;40172;53.022;7.012;2023-08-24T05:05:35;14.20;99.90
54260;DHT22;40172;53.022;7.012;2023-08-24T05:08:03;14.30;99.90
54260;DHT22;40172;53.022;7.012;2023-08-24T05:10:35;14.30;99.90
54260;DHT22;40172;53.022;7.012;2023-08-24T05:13:01;14.30;99.90
54260;DHT22;40172;53.022;7.012;2023-08-24T05:15:27;15.20;99.90
54260;DHT22;40172;53.022;7.012;2023-08-24T05:17:53;14.30;99.90
54260;DHT22;40172;53.022;7.012;2023-08-24T05:20:20;14.30;99.90
54260;DHT22;40172;53.022;7.012;2023-08-24T05:22:46;14.30;99.90
54260;DHT22;40172;53.022;7.012;2023-08-24T05:25:12;14.30;99.90
54260;DHT22;40172;53.022;7.012;2023-08-24T05:27:38;14.50;99.90
54260;DHT22;40172;53.022;7.012;2023-08-24T05:30:04;14.40;99.90
54260;DHT22;40172;53.022;7.012;2023-08-24T05:32:31;14.50;99.90
54260;DHT22;40172;53.022;7.012;2023-08-24T05:34:56;14.50;99.90
54260;DHT22;40172;53.022;7.012;2023-08-24T05:37:22;14.50;99.90
54260;DHT22;40172;53.022;7.012;2023-08-24T05:39:47;14.60;99.90
54260;DHT22;40172;53.022;7.012;2023-08-24T05:42:13;14.70;99.90
54260;DHT22;40172;53.022;7.012;2023-08-24T05:44:39;14.80;99.90
54260;DHT22;40172;53.022;7.012;2023-08-24T05:47:04;14.80;99.90
54260;DHT22;40172;53.022;7.012;2023-08-24T05:49:30;14.90;99.90
54260;DHT22;40172;53.022;7.012;2023-08-24T05:51:56;15.00;99.90
54260;DHT22;40172;53.022;7.012;2023-08-24T05:54:21;15.10;99.90
54260;DHT22;40172;53.022;7.012;2023-08-24T05:56:47;15.20;99.90
54260;DHT22;40172;53.022;7.012;2023-08-24T05:59:14;15.30;99.90
54260;DHT22;40172;53.022;7.012;2023-08-24T06:01:40;15.40;99.90
54260;DHT22;40172;53.022;7.012;2023-08-24T06:04:07;15.50;99.90
54260;DHT22;40172;53.022;7.012;2023-08-24T06:06:32;15.60;99.90
54260;DHT22;40172;53.022;7.012;2023-08-24T06:08:58;15.80;99.90
54260;DHT22;40172;53.022;7.012;2023-08-24T06:11:24;15.80;99.90
54260;DHT22;40172;53.022;7.012;2023-08-24T06:13:49;16.00;99.90
54260;DHT22;40172;53.022;7.012;2023-08-24T06:16:17;16.10;99.90
54260;DHT22;40172;53.022;7.012;2023-08-24T06:18:43;16.20;99.90
54260;DHT22;40172;53.022;7.012;2023-08-24T06:21:08;16.30;99.90
54260;DHT22;40172;53.022;7.012;2023-08-24T06:23:34;16.40;99.90
54260;DHT22;40172;53.022;7.012;2023-08-24T06:25:59;16.50;99.90
54260;DHT22;40172;53.022;7.012;2023-08-24T06:28:26;16.60;99.90
54260;DHT22;40172;53.022;7.012;2023-08-24T06:30:52;16.80;99.90
54260;DHT22;40172;53.022;7.012;2023-08-24T06:33:20;16.90;99.90
54260;DHT22;40172;53.022;7.012;2023-08-24T06:35:46;17.00;99.90
54260;DHT22;40172;53.022;7.012;2023-08-24T06:38:11;17.10;99.90
54260;DHT22;40172;53.022;7.012;2023-08-24T06:40:37;17.20;99.90
54260;DHT22;40172;53.022;7.012;2023-08-24T06:43:03;17.30;99.90
54260;DHT22;40172;53.022;7.012;2023-08-24T06:45:29;17.40;99.90
54260;DHT22;40172;53.022;7.012;2023-08-24T06:47:55;17.50;99.90
54260;DHT22;40172;53.022;7.012;2023-08-24T06:50:20;17.60;99.90
54260;DHT22;40172;53.022;7.012;2023-08-24T06:52:46;17.80;99.90
54260;DHT22;40172;53.022;7.012;2023-08-24T06:55:12;17.90;99.90
54260;DHT22;40172;53.022;7.012;2023-08-24T06:57:38;18.00;99.90
54260;DHT22;40172;53.022;7.012;2023-08-24T07:00:04;18.10;99.90
54260;DHT22;40172;53.022;7.012;2023-08-24T07:02:37;18.20;99.90
54260;DHT22;40172;53.022;7.012;2023-08-24T07:05:03;18.30;99.90
54260;DHT22;40172;53.022;7.012;2023-08-24T07:07:34;18.40;99.90
54260;DHT22;40172;53.022;7.012;2023-08-24T07:10:00;18.60;99.90
54260;DHT22;40172;53.022;7.012;2023-08-24T07:12:25;18.70;99.90
54260;DHT22;40172;53.022;7.012;2023-08-24T07:14:51;18.80;99.90
54260;DHT22;40172;53.022;7.012;2023-08-24T07:17:17;18.90;99.90
54260;DHT22;40172;53.022;7.012;2023-08-24T07:19:43;19.00;99.90
54260;DHT22;40172;53.022;7.012;2023-08-24T07:22:09;19.20;99.90
54260;DHT22;40172;53.022;7.012;2023-08-24T07:24:34;19.30;99.90
54260;DHT22;40172;53.022;7.012;2023-08-24T07:27:01;19.40;99.90
54260;DHT22;40172;53.022;7.012;2023-08-24T07:29:28;19.70;99.90
54260;DHT22;40172;53.022;7.012;2023-08-24T07:31:54;19.70;99.90
54260;DHT22;40172;53.022;7.012;2023-08-24T07:34:19;19.90;99.90
54260;DHT22;40172;53.022;7.012;2023-08-24T07:36:48;20.00;99.90
54260;DHT22;40172;53.022;7.012;2023-08-24T07:39:14;20.10;99.90
54260;DHT22;40172;53.022;7.012;2023-08-24T07:41:44;20.20;99.90
54260;DHT22;40172;53.022;7.012;2023-08-24T07:44:10;20.20;99.90
54260;DHT22;40172;53.022;7.012;2023-08-24T07:46:35;20.20;99.90
54260;DHT22;40172;53.022;7.012;2023-08-24T07:49:01;20.20;99.90
54260;DHT22;40172;53.022;7.012;2023-08-24T07:51:26;20.40;99.90
54260;DHT22;40172;53.022;7.012;2023-08-24T07:53:53;20.60;99.90
54260;DHT22;40172;53.022;7.012;2023-08-24T07:56:19;20.80;99.90
54260;DHT22;40172;53.022;7.012;2023-08-24T07:58:45;21.00;99.90
54260;DHT22;40172;53.022;7.012;2023-08-24T08:01:11;21.10;99.90
54260;DHT22;40172;53.022;7.012;2023-08-24T08:03:37;21.20;99.90
54260;DHT22;40172;53.022;7.012;2023-08-24T08:06:02;21.30;99.90
54260;DHT22;40172;53.022;7.012;2023-08-24T08:08:28;21.40;99.90
54260;DHT22;40172;53.022;7.012;2023-08-24T08:10:58;21.50;99.90
54260;DHT22;40172;53.022;7.012;2023-08-24T08:13:25;21.60;99.90
54260;DHT22;40172;53.022;7.012;2023-08-24T08:15:51;21.80;99.90
54260;DHT22;40172;53.022;7.012;2023-08-24T08:18:16;21.70;99.90
54260;DHT22;40172;53.022;7.012;2023-08-24T08:20:42;21.70;99.90
54260;DHT22;40172;53.022;7.012;2023-08-24T08:23:08;21.70;99.90
54260;DHT22;40172;53.022;7.012;2023-08-24T08:25:33;21.80;99.90
54260;DHT22;40172;53.022;7.012;2023-08-24T08:27:59;21.90;99.90
54260;DHT22;40172;53.022;7.012;2023-08-24T08:30:25;22.10;99.90
54260;DHT22;40172;53.022;7.012;2023-08-24T08:32:50;22.10;99.90
54260;DHT22;40172;53.022;7.012;2023-08-24T08:35:18;22.10;99.90
54260;DHT22;40172;53.022;7.012;2023-08-24T08:37:44;22.10;99.90
54260;DHT22;40172;53.022;7.012;2023-08-24T08:40:10;22.10;99.90
54260;DHT22;40172;53.022;7.012;2023-08-24T08:42:36;22.10;99.90
54260;DHT22;40172;53.022;7.012;2023-08-24T08:45:04;22.20;99.90
54260;DHT22;40172;53.022;7.012;2023-08-24T08:47:33;22.30;99.90
54260;DHT22;40172;53.022;7.012;2023-08-24T08:49:59;22.50;99.90
54260;DHT22;40172;53.022;7.012;2023-08-24T08:52:26;22.60;99.90
54260;DHT22;40172;53.022;7.012;2023-08-24T08:54:52;22.70;99.90
54260;DHT22;40172;53.022;7.012;2023-08-24T08:57:18;22.80;99.90
54260;DHT22;40172;53.022;7.012;2023-08-24T08:59:44;22.90;99.90
54260;DHT22;40172;53.022;7.012;2023-08-24T09:02:14;23.00;99.90
54260;DHT22;40172;53.022;7.012;2023-08-24T09:04:42;23.10;99.90
54260;DHT22;40172;53.022;7.012;2023-08-24T09:07:10;23.20;99.90
54260;DHT22;40172;53.022;7.012;2023-08-24T09:09:38;23.40;99.90
54260;DHT22;40172;53.022;7.012;2023-08-24T09:12:05;23.50;99.90
54260;DHT22;40172;53.022;7.012;2023-08-24T09:14:31;23.60;99.90
54260;DHT22;40172;53.022;7.012;2023-08-24T09:16:58;23.80;99.90
54260;DHT22;40172;53.022;7.012;2023-08-24T09:19:32;24.20;99.90
54260;DHT22;40172;53.022;7.012;2023-08-24T09:22:00;24.20;99.90
54260;DHT22;40172;53.022;7.012;2023-08-24T09:24:33;24.20;99.90
54260;DHT22;40172;53.022;7.012;2023-08-24T09:27:00;24.40;99.90
54260;DHT22;40172;53.022;7.012;2023-08-24T09:29:36;24.40;99.90
54260;DHT22;40172;53.022;7.012;2023-08-24T09:32:02;24.60;99.90
54260;DHT22;40172;53.022;7.012;2023-08-24T09:34:28;24.80;99.90
54260;DHT22;40172;53.022;7.012;2023-08-24T09:36:56;24.90;99.90
54260;DHT22;40172;53.022;7.012;2023-08-24T09:39:22;25.00;99.90
54260;DHT22;40172;53.022;7.012;2023-08-24T09:41:50;25.00;99.90
54260;DHT22;40172;53.022;7.012;2023-08-24T09:44:19;25.10;99.90
54260;DHT22;40172;53.022;7.012;2023-08-24T09:46:45;25.20;99.90
54260;DHT22;40172;53.022;7.012;2023-08-24T09:49:11;25.10;99.90
54260;DHT22;40172;53.022;7.012;2023-08-24T09:51:38;25.10;99.90
54260;DHT22;40172;53.022;7.012;2023-08-24T09:54:06;25.10;99.90
54260;DHT22;40172;53.022;7.012;2023-08-24T09:56:36;25.10;99.90
54260;DHT22;40172;53.022;7.012;2023-08-24T09:59:17;25.00;99.90
54260;DHT22;40172;53.022;7.012;2023-08-24T10:01:45;24.90;99.90
54260;DHT22;40172;53.022;7.012;2023-08-24T10:04:14;24.90;99.90
54260;DHT22;40172;53.022;7.012;2023-08-24T10:06:42;24.90;99.90
54260;DHT22;40172;53.022;7.012;2023-08-24T10:09:19;25.40;99.90
54260;DHT22;40172;53.022;7.012;2023-08-24T10:11:55;24.90;99.90
54260;DHT22;40172;53.022;7.012;2023-08-24T10:14:29;24.90;99.90
54260;DHT22;40172;53.022;7.012;2023-08-24T10:16:56;24.90;99.90
54260;DHT22;40172;53.022;7.012;2023-08-24T10:19:22;24.80;99.90
54260;DHT22;40172;53.022;7.012;2023-08-24T10:21:49;24.80;99.90
54260;DHT22;40172;53.022;7.012;2023-08-24T10:24:16;24.70;99.90
54260;DHT22;40172;53.022;7.012;2023-08-24T10:26:42;24.80;99.90
54260;DHT22;40172;53.022;7.012;2023-08-24T10:29:08;24.70;99.90
54260;DHT22;40172;53.022;7.012;2023-08-24T10:31:36;24.70;99.90
54260;DHT22;40172;53.022;7.012;2023-08-24T10:34:03;24.60;99.90
54260;DHT22;40172;53.022;7.012;2023-08-24T10:36:30;24.50;99.90
54260;DHT22;40172;53.022;7.012;2023-08-24T10:38:56;24.50;99.90
54260;DHT22;40172;53.022;7.012;2023-08-24T10:41:28;25.00;99.90
54260;DHT22;40172;53.022;7.012;2023-08-24T10:44:04;24.40;99.90
54260;DHT22;40172;53.022;7.012;2023-08-24T10:46:35;24.40;99.90
54260;DHT22;40172;53.022;7.012;2023-08-24T10:49:04;24.40;99.90
54260;DHT22;40172;53.022;7.012;2023-08-24T10:51:30;24.70;99.90
54260;DHT22;40172;53.022;7.012;2023-08-24T10:54:01;24.50;99.90
54260;DHT22;40172;53.022;7.012;2023-08-24T10:56:38;24.50;99.90
54260;DHT22;40172;53.022;7.012;2023-08-24T10:59:19;24.70;99.90
54260;DHT22;40172;53.022;7.012;2023-08-24T11:04:19;24.70;99.90
54260;DHT22;40172;53.022;7.012;2023-08-24T11:06:59;24.70;99.90
54260;DHT22;40172;53.022;7.012;2023-08-24T11:09:47;24.80;99.90
54260;DHT22;40172;53.022;7.012;2023-08-24T11:12:13;24.80;99.90
54260;DHT22;40172;53.022;7.012;2023-08-24T11:14:50;24.90;99.90
54260;DHT22;40172;53.022;7.012;2023-08-24T11:17:24;24.90;99.90
54260;DHT22;40172;53.022;7.012;2023-08-24T11:19:54;25.00;99.90
54260;DHT22;40172;53.022;7.012;2023-08-24T11:22:20;25.20;99.90
54260;DHT22;40172;53.022;7.012;2023-08-24T11:24:47;25.40;99.90
54260;DHT22;40172;53.022;7.012;2023-08-24T11:27:13;25.80;99.90
54260;DHT22;40172;53.022;7.012;2023-08-24T11:29:38;26.50;99.90
54260;DHT22;40172;53.022;7.012;2023-08-24T11:32:04;25.90;99.90
54260;DHT22;40172;53.022;7.012;2023-08-24T11:34:30;26.00;99.90
54260;DHT22;40172;53.022;7.012;2023-08-24T11:36:56;26.10;99.90
54260;DHT22;40172;53.022;7.012;2023-08-24T11:39:22;26.50;99.90
54260;DHT22;40172;53.022;7.012;2023-08-24T11:42:02;26.40;99.90
54260;DHT22;40172;53.022;7.012;2023-08-24T11:44:29;26.50;99.90
54260;DHT22;40172;53.022;7.012;2023-08-24T11:46:58;26.50;99.90
54260;DHT22;40172;53.022;7.012;2023-08-24T11:49:24;27.00;99.90
54260;DHT22;40172;53.022;7.012;2023-08-24T11:51:51;27.20;99.90
54260;DHT22;40172;53.022;7.012;2023-08-24T11:54:20;26.70;99.90
54260;DHT22;40172;53.022;7.012;2023-08-24T11:56:46;26.60;99.90
54260;DHT22;40172;53.022;7.012;2023-08-24T11:59:16;26.60;99.90
54260;DHT22;40172;53.022;7.012;2023-08-24T12:01:42;26.50;99.90
54260;DHT22;40172;53.022;7.012;2023-08-24T12:04:08;26.60;99.90
54260;DHT22;40172;53.022;7.012;2023-08-24T12:06:34;26.60;99.90
54260;DHT22;40172;53.022;7.012;2023-08-24T12:09:00;26.70;99.90
54260;DHT22;40172;53.022;7.012;2023-08-24T12:11:28;26.80;99.90
54260;DHT22;40172;53.022;7.012;2023-08-24T12:13:55;26.70;99.90
54260;DHT22;40172;53.022;7.012;2023-08-24T12:16:21;26.70;99.90
54260;DHT22;40172;53.022;7.012;2023-08-24T12:18:54;26.70;99.90
54260;DHT22;40172;53.022;7.012;2023-08-24T12:21:23;26.70;99.90
54260;DHT22;40172;53.022;7.012;2023-08-24T12:24:15;26.70;99.90
54260;DHT22;40172;53.022;7.012;2023-08-24T12:26:41;26.70;99.90
54260;DHT22;40172;53.022;7.012;2023-08-24T12:29:08;26.60;99.90
54260;DHT22;40172;53.022;7.012;2023-08-24T12:31:34;26.50;99.90
54260;DHT22;40172;53.022;7.012;2023-08-24T12:36:26;26.40;99.90
54260;DHT22;40172;53.022;7.012;2023-08-24T12:38:53;26.30;99.90
54260;DHT22;40172;53.022;7.012;2023-08-24T12:41:18;26.20;99.90
54260;DHT22;40172;53.022;7.012;2023-08-24T12:43:44;26.10;99.90
54260;DHT22;40172;53.022;7.012;2023-08-24T12:46:09;26.00;99.90
54260;DHT22;40172;53.022;7.012;2023-08-24T12:48:35;26.00;99.90
54260;DHT22;40172;53.022;7.012;2023-08-24T12:51:00;25.90;99.90
54260;DHT22;40172;53.022;7.012;2023-08-24T12:53:26;25.90;99.90
54260;DHT22;40172;53.022;7.012;2023-08-24T12:55:51;25.80;99.90
54260;DHT22;40172;53.022;7.012;2023-08-24T12:58:17;25.70;99.90
54260;DHT22;40172;53.022;7.012;2023-08-24T13:00:44;25.80;99.90
54260;DHT22;40172;53.022;7.012;2023-08-24T13:03:09;25.80;99.90
54260;DHT22;40172;53.022;7.012;2023-08-24T13:05:36;25.90;99.90
54260;DHT22;40172;53.022;7.012;2023-08-24T13:08:02;25.90;99.90
54260;DHT22;40172;53.022;7.012;2023-08-24T13:10:28;26.00;99.90
54260;DHT22;40172;53.022;7.012;2023-08-24T13:12:53;26.60;99.90
54260;DHT22;40172;53.022;7.012;2023-08-24T13:15:19;26.10;99.90
54260;DHT22;40172;53.022;7.012;2023-08-24T13:17:46;26.10;99.90
54260;DHT22;40172;53.022;7.012;2023-08-24T13:20:11;26.20;99.90
54260;DHT22;40172;53.022;7.012;2023-08-24T13:22:37;26.30;99.90
54260;DHT22;40172;53.022;7.012;2023-08-24T13:25:03;26.40;99.90
54260;DHT22;40172;53.022;7.012;2023-08-24T13:27:28;26.40;99.90
54260;DHT22;40172;53.022;7.012;2023-08-24T13:29:59;26.80;99.90
54260;DHT22;40172;53.022;7.012;2023-08-24T13:32:25;26.60;99.90
54260;DHT22;40172;53.022;7.012;2023-08-24T13:34:50;27.10;99.90
54260;DHT22;40172;53.022;7.012;2023-08-24T13:37:19;26.60;99.90
54260;DHT22;40172;53.022;7.012;2023-08-24T13:39:45;26.60;99.90
54260;DHT22;40172;53.022;7.012;2023-08-24T13:42:11;26.80;99.90
54260;DHT22;40172;53.022;7.012;2023-08-24T13:44:36;26.70;99.90
54260;DHT22;40172;53.022;7.012;2023-08-24T13:47:03;26.60;99.90
54260;DHT22;40172;53.022;7.012;2023-08-24T13:49:29;26.60;99.90
54260;DHT22;40172;53.022;7.012;2023-08-24T13:51:55;26.50;99.90
54260;DHT22;40172;53.022;7.012;2023-08-24T13:54:20;26.40;99.90
54260;DHT22;40172;53.022;7.012;2023-08-24T13:56:47;26.30;99.90
54260;DHT22;40172;53.022;7.012;2023-08-24T13:59:14;26.20;99.90
54260;DHT22;40172;53.022;7.012;2023-08-24T14:01:40;26.30;99.90
54260;DHT22;40172;53.022;7.012;2023-08-24T14:04:06;26.10;99.90
54260;DHT22;40172;53.022;7.012;2023-08-24T14:06:32;26.10;99.90
54260;DHT22;40172;53.022;7.012;2023-08-24T14:09:00;26.00;99.90
54260;DHT22;40172;53.022;7.012;2023-08-24T14:11:27;26.00;99.90
54260;DHT22;40172;53.022;7.012;2023-08-24T14:13:53;26.00;99.90
54260;DHT22;40172;53.022;7.012;2023-08-24T14:16:19;25.90;99.90
54260;DHT22;40172;53.022;7.012;2023-08-24T14:18:45;25.80;99.90
54260;DHT22;40172;53.022;7.012;2023-08-24T14:21:11;25.70;99.90
54260;DHT22;40172;53.022;7.012;2023-08-24T14:23:37;25.60;99.90
54260;DHT22;40172;53.022;7.012;2023-08-24T14:26:02;25.50;99.90
54260;DHT22;40172;53.022;7.012;2023-08-24T14:28:54;25.40;99.90
54260;DHT22;40172;53.022;7.012;2023-08-24T14:31:24;25.20;99.90
54260;DHT22;40172;53.022;7.012;2023-08-24T14:33:50;25.10;99.90
54260;DHT22;40172;53.022;7.012;2023-08-24T14:36:17;25.00;99.90
54260;DHT22;40172;53.022;7.012;2023-08-24T14:38:42;24.90;99.90
54260;DHT22;40172;53.022;7.012;2023-08-24T14:41:13;24.90;99.90
54260;DHT22;40172;53.022;7.012;2023-08-24T14:43:39;24.80;99.90
54260;DHT22;40172;53.022;7.012;2023-08-24T14:46:05;24.70;99.90
54260;DHT22;40172;53.022;7.012;2023-08-24T14:48:31;24.70;99.90
54260;DHT22;40172;53.022;7.012;2023-08-24T14:50:57;24.60;99.90
54260;DHT22;40172;53.022;7.012;2023-08-24T14:53:24;24.50;99.90
54260;DHT22;40172;53.022;7.012;2023-08-24T14:55:49;24.50;99.90
54260;DHT22;40172;53.022;7.012;2023-08-24T14:58:15;24.40;99.90
54260;DHT22;40172;53.022;7.012;2023-08-24T15:00:40;24.30;99.90
54260;DHT22;40172;53.022;7.012;2023-08-24T15:03:06;24.20;99.90
54260;DHT22;40172;53.022;7.012;2023-08-24T15:05:42;24.20;99.90
54260;DHT22;40172;53.022;7.012;2023-08-24T15:08:08;24.10;99.90
54260;DHT22;40172;53.022;7.012;2023-08-24T15:10:33;24.00;99.90
54260;DHT22;40172;53.022;7.012;2023-08-24T15:12:59;24.00;99.90
54260;DHT22;40172;53.022;7.012;2023-08-24T15:15:24;23.60;99.90
54260;DHT22;40172;53.022;7.012;2023-08-24T15:17:50;23.80;99.90
54260;DHT22;40172;53.022;7.012;2023-08-24T15:20:16;23.80;99.90
54260;DHT22;40172;53.022;7.012;2023-08-24T15:22:42;23.80;99.90
54260;DHT22;40172;53.022;7.012;2023-08-24T15:25:07;23.70;99.90
54260;DHT22;40172;53.022;7.012;2023-08-24T15:27:33;23.70;99.90
54260;DHT22;40172;53.022;7.012;2023-08-24T15:29:59;23.70;99.90
54260;DHT22;40172;53.022;7.012;2023-08-24T15:32:26;23.60;99.90
54260;DHT22;40172;53.022;7.012;2023-08-24T15:34:52;23.60;99.90
54260;DHT22;40172;53.022;7.012;2023-08-24T15:37:19;23.60;99.90